createdAt,value
2018-01-12T00:01:17.035Z,4.68
2018-01-12T00:03:44.519Z,4.62
2018-01-12T00:06:11.983Z,4.65
2018-01-12T00:08:39.458Z,4.70
2018-01-12T00:11:06.912Z,4.65
2018-01-12T00:13:34.385Z,4.57
2018-01-12T00:16:01.850Z,4.52
2018-01-12T00:18:29.306Z,4.47
2018-01-12T00:20:56.785Z,4.47
2018-01-12T00:23:24.252Z,4.45
2018-01-12T00:25:51.716Z,4.50
2018-01-12T00:28:19.159Z,4.55
2018-01-12T00:30:46.622Z,4.54
2018-01-12T00:33:14.078Z,4.51
2018-01-12T00:35:41.570Z,4.48
2018-01-12T00:38:09.039Z,4.47
2018-01-12T00:40:36.505Z,4.48
2018-01-12T00:43:03.955Z,4.48
2018-01-12T00:45:31.428Z,4.51
2018-01-12T00:47:58.876Z,4.57
2018-01-12T00:50:26.339Z,4.62
2018-01-12T00:52:53.830Z,4.61
2018-01-12T00:55:21.273Z,4.66
2018-01-12T00:57:48.904Z,4.65
2018-01-12T01:00:16.372Z,4.69
2018-01-12T01:02:43.840Z,4.71
2018-01-12T01:05:11.302Z,4.84
2018-01-12T01:07:38.767Z,4.84
2018-01-12T01:10:06.230Z,4.83
2018-01-12T01:12:33.688Z,4.80
2018-01-12T01:15:01.144Z,4.81
2018-01-12T01:17:28.605Z,4.86
2018-01-12T01:19:56.058Z,4.87
2018-01-12T01:22:23.512Z,4.91
2018-01-12T01:24:51.007Z,4.92
2018-01-12T01:27:18.460Z,4.94
2018-01-12T01:29:45.952Z,4.88
2018-01-12T01:32:13.407Z,4.86
2018-01-12T01:34:40.883Z,4.87
2018-01-12T01:37:08.353Z,4.81
2018-01-12T01:39:35.825Z,4.88
2018-01-12T01:42:03.290Z,4.92
2018-01-12T01:44:30.757Z,4.91
2018-01-12T01:46:58.242Z,4.87
2018-01-12T01:49:25.697Z,4.86
2018-01-12T01:51:53.185Z,4.75
2018-01-12T01:54:20.662Z,4.73
2018-01-12T01:56:48.115Z,4.83
2018-01-12T01:59:15.596Z,4.68
2018-01-12T02:01:43.060Z,4.63
2018-01-12T02:04:10.519Z,4.65
2018-01-12T02:06:37.968Z,4.69
2018-01-12T02:09:05.450Z,4.58
2018-01-12T02:11:32.922Z,4.51
2018-01-12T02:14:00.391Z,4.51
2018-01-12T02:16:27.854Z,4.58
2018-01-12T02:18:55.332Z,4.43
2018-01-12T02:21:22.781Z,4.36
2018-01-12T02:23:50.275Z,4.38
2018-01-12T02:26:17.710Z,4.37
2018-01-12T02:28:45.176Z,4.43
2018-01-12T02:31:12.628Z,4.40
2018-01-12T02:33:40.140Z,4.46
2018-01-12T02:36:07.621Z,4.42
2018-01-12T02:38:35.077Z,4.44
2018-01-12T02:41:02.556Z,4.43
2018-01-12T02:43:30.017Z,4.41
2018-01-12T02:45:57.472Z,4.45
2018-01-12T02:48:24.936Z,4.44
2018-01-12T02:50:52.404Z,4.45
2018-01-12T02:53:19.851Z,4.42
2018-01-12T02:55:47.356Z,4.51
2018-01-12T02:58:14.774Z,4.55
2018-01-12T03:00:42.228Z,4.39
2018-01-12T03:03:09.694Z,4.31
2018-01-12T03:05:37.160Z,4.39
2018-01-12T03:08:04.626Z,4.47
2018-01-12T03:10:32.075Z,4.37
2018-01-12T03:12:59.552Z,4.32
2018-01-12T03:15:26.995Z,4.31
2018-01-12T03:17:54.495Z,4.36
2018-01-12T03:20:21.965Z,4.27
2018-01-12T03:22:49.442Z,4.25
2018-01-12T03:25:16.900Z,4.30
2018-01-12T03:27:44.371Z,4.29
2018-01-12T03:30:11.845Z,4.24
2018-01-12T03:32:39.301Z,4.30
2018-01-12T03:35:06.769Z,4.22
2018-01-12T03:37:34.221Z,4.14
2018-01-12T03:40:01.682Z,4.17
2018-01-12T03:42:29.134Z,4.17
2018-01-12T03:44:56.602Z,4.12
2018-01-12T03:47:24.852Z,4.14
2018-01-12T03:49:52.311Z,4.10
2018-01-12T03:52:19.760Z,4.17
2018-01-12T03:54:47.247Z,4.23
2018-01-12T03:57:14.710Z,4.29
2018-01-12T03:59:42.160Z,4.34
2018-01-12T04:02:09.633Z,4.31
2018-01-12T04:04:37.094Z,4.21
2018-01-12T04:07:04.568Z,4.28
2018-01-12T04:09:32.036Z,4.28
2018-01-12T04:11:59.501Z,4.24
2018-01-12T04:14:26.951Z,4.29
2018-01-12T04:16:54.441Z,4.24
2018-01-12T04:19:21.887Z,4.30
2018-01-12T04:21:49.375Z,4.27
2018-01-12T04:24:16.829Z,4.34
2018-01-12T04:26:44.286Z,4.40
2018-01-12T04:29:11.799Z,4.38
2018-01-12T04:31:39.239Z,4.31
2018-01-12T04:34:06.724Z,4.33
2018-01-12T04:36:34.180Z,4.36
2018-01-12T04:39:01.641Z,4.38
2018-01-12T04:41:29.105Z,4.38
2018-01-12T04:43:56.593Z,4.49
2018-01-12T04:46:24.048Z,4.43
2018-01-12T04:48:51.518Z,4.39
2018-01-12T04:51:18.976Z,4.44
2018-01-12T04:53:46.428Z,4.49
2018-01-12T04:56:13.940Z,4.46
2018-01-12T04:58:41.629Z,4.51
2018-01-12T05:01:09.085Z,4.57
2018-01-12T05:03:36.545Z,4.55
2018-01-12T05:06:04.017Z,4.51
2018-01-12T05:08:31.478Z,4.58
2018-01-12T05:10:58.957Z,4.62
2018-01-12T05:13:26.429Z,4.61
2018-01-12T05:15:53.893Z,4.56
2018-01-12T05:18:21.354Z,4.51
2018-01-12T05:20:48.825Z,4.42
2018-01-12T05:23:16.276Z,4.43
2018-01-12T05:25:43.752Z,4.42
2018-01-12T05:28:11.227Z,4.40
2018-01-12T05:30:38.701Z,4.30
2018-01-12T05:33:06.160Z,4.30
2018-01-12T05:35:33.641Z,4.33
2018-01-12T05:38:01.081Z,4.31
2018-01-12T05:40:28.533Z,4.35
2018-01-12T05:42:56.005Z,4.41
2018-01-12T05:45:23.481Z,4.34
2018-01-12T05:47:50.935Z,4.28
2018-01-12T05:50:18.392Z,4.32
2018-01-12T05:52:45.842Z,4.26
2018-01-12T05:55:13.292Z,4.28
2018-01-12T05:57:40.747Z,4.31
2018-01-12T06:00:08.202Z,4.29
2018-01-12T06:02:47.484Z,4.34
2018-01-12T06:05:26.638Z,5.61
2018-01-12T06:07:54.103Z,6.18
2018-01-12T06:10:21.563Z,5.47
2018-01-12T06:12:49.028Z,5.15
2018-01-12T06:15:16.494Z,4.85
2018-01-12T06:17:44.003Z,4.88
2018-01-12T06:20:11.465Z,4.81
2018-01-12T06:22:38.920Z,4.72
2018-01-12T06:25:06.382Z,4.65
2018-01-12T06:27:33.828Z,4.61
2018-01-12T06:30:01.292Z,4.55
2018-01-12T06:32:28.774Z,4.49
2018-01-12T06:34:56.249Z,4.43
2018-01-12T06:37:23.768Z,4.37
2018-01-12T06:39:51.242Z,4.34
2018-01-12T06:42:18.697Z,4.38
2018-01-12T06:44:46.169Z,4.34
2018-01-12T06:47:13.616Z,4.31
2018-01-12T06:49:41.092Z,4.36
2018-01-12T06:52:08.549Z,4.33
2018-01-12T06:54:36.052Z,4.27
2018-01-12T06:57:03.514Z,4.26
2018-01-12T06:59:30.979Z,4.22
2018-01-12T07:01:58.440Z,4.18
2018-01-12T07:04:25.894Z,4.18
2018-01-12T07:06:53.380Z,4.16
2018-01-12T07:09:20.846Z,4.12
2018-01-12T07:11:48.309Z,4.13
2018-01-12T07:14:15.801Z,4.17
2018-01-12T07:16:43.272Z,4.19
2018-01-12T07:19:10.721Z,4.17
2018-01-12T07:21:50.222Z,4.13
2018-01-12T07:24:17.687Z,4.11
2018-01-12T07:26:45.276Z,4.22
2018-01-12T07:29:12.755Z,4.24
2018-01-12T07:31:40.237Z,4.25
2018-01-12T07:34:07.711Z,4.25
2018-01-12T07:36:35.191Z,4.23
2018-01-12T07:39:02.841Z,4.21
2018-01-12T07:41:30.293Z,4.20
2018-01-12T07:43:57.759Z,4.19
2018-01-12T07:46:25.224Z,4.20
2018-01-12T07:48:52.692Z,4.21
2018-01-12T07:51:20.141Z,4.20
2018-01-12T07:53:47.629Z,4.24
2018-01-12T07:56:15.073Z,4.17
2018-01-12T07:58:42.520Z,4.17
2018-01-12T08:01:15.717Z,4.21
2018-01-12T08:03:43.170Z,4.31
2018-01-12T08:06:10.638Z,4.32
2018-01-12T08:08:38.101Z,4.26
2018-01-12T08:11:05.583Z,4.31
2018-01-12T08:13:33.040Z,4.25
2018-01-12T08:16:00.541Z,4.24
2018-01-12T08:18:27.997Z,4.28
2018-01-12T08:20:55.464Z,4.35
2018-01-12T08:23:22.923Z,4.33
2018-01-12T08:25:50.496Z,4.35
2018-01-12T08:28:17.958Z,4.37
2018-01-12T08:30:45.408Z,4.40
2018-01-12T08:33:12.865Z,4.53
2018-01-12T08:35:40.347Z,4.43
2018-01-12T08:38:07.838Z,4.37
2018-01-12T08:40:35.275Z,4.38
2018-01-12T08:43:02.761Z,4.32
2018-01-12T08:45:30.208Z,4.37
2018-01-12T08:47:57.683Z,4.45
2018-01-12T08:50:25.191Z,4.40
2018-01-12T08:52:52.676Z,4.38
2018-01-12T08:55:20.128Z,4.42
2018-01-12T08:57:47.607Z,4.44
2018-01-12T09:00:15.134Z,4.45
2018-01-12T09:02:42.614Z,4.52
2018-01-12T09:05:10.078Z,4.63
2018-01-12T09:07:37.563Z,4.59
2018-01-12T09:10:05.029Z,4.59
2018-01-12T09:12:32.481Z,4.64
2018-01-12T09:15:06.853Z,4.63
2018-01-12T09:17:49.203Z,4.62
2018-01-12T09:20:17.430Z,4.57
2018-01-12T09:22:46.800Z,4.60
2018-01-12T09:25:26.285Z,4.58
2018-01-12T09:27:53.749Z,4.60
2018-01-12T09:30:21.247Z,4.68
2018-01-12T09:32:49.589Z,4.67
2018-01-12T09:35:17.060Z,4.69
2018-01-12T09:37:44.528Z,4.56
2018-01-12T09:40:19.299Z,4.60
2018-01-12T09:42:46.786Z,4.66
2018-01-12T09:45:14.293Z,4.65
2018-01-12T09:47:42.144Z,4.72
2018-01-12T09:50:09.607Z,4.64
2018-01-12T09:52:37.060Z,4.61
2018-01-12T09:55:04.528Z,4.66
2018-01-12T09:57:31.993Z,4.67
2018-01-12T09:59:59.536Z,4.71
2018-01-12T10:02:27.028Z,4.76
2018-01-12T10:04:54.504Z,4.75
2018-01-12T10:07:21.976Z,4.75
2018-01-12T10:09:49.430Z,4.84
2018-01-12T10:12:16.890Z,4.71
2018-01-12T10:14:44.332Z,4.74
2018-01-12T10:17:11.789Z,4.91
2018-01-12T10:20:01.733Z,4.89
2018-01-12T10:22:29.279Z,4.88
2018-01-12T10:24:56.762Z,4.80
2018-01-12T10:27:24.263Z,4.80
2018-01-12T10:29:57.648Z,4.85
2018-01-12T10:35:25.787Z,4.95
2018-01-12T10:37:53.355Z,4.99
2018-01-12T10:43:23.633Z,5.12
2018-01-12T10:46:03.035Z,5.08
2018-01-12T10:48:42.301Z,5.08
2018-01-12T10:51:16.500Z,5.05
2018-01-12T10:53:43.969Z,5.09
2018-01-12T10:56:11.412Z,5.14
2018-01-12T10:58:38.872Z,5.17
2018-01-12T11:01:09.785Z,5.18
2018-01-12T11:03:37.242Z,5.27
2018-01-12T11:06:04.692Z,5.35
2018-01-12T11:08:32.192Z,5.35
2018-01-12T11:10:59.697Z,5.32
2018-01-12T11:13:27.165Z,5.39
2018-01-12T11:15:54.640Z,5.37
2018-01-12T11:18:22.097Z,5.41
2018-01-12T11:20:49.566Z,5.37
2018-01-12T11:23:17.018Z,5.46
2018-01-12T11:25:44.477Z,5.39
2018-01-12T11:28:11.942Z,5.32
2018-01-12T11:30:39.396Z,5.22
2018-01-12T11:33:06.927Z,5.24
2018-01-12T11:35:34.382Z,5.26
2018-01-12T11:38:01.844Z,5.22
2018-01-12T11:40:29.361Z,5.21
2018-01-12T11:42:56.831Z,5.27
2018-01-12T11:45:24.308Z,5.22
2018-01-12T11:47:51.797Z,5.27
2018-01-12T11:50:19.260Z,5.28
2018-01-12T11:52:46.726Z,5.23
2018-01-12T11:55:14.175Z,5.25
2018-01-12T11:57:41.637Z,5.29
2018-01-12T12:00:09.088Z,5.33
2018-01-12T12:02:36.553Z,5.32
2018-01-12T12:05:04.011Z,5.31
2018-01-12T12:07:31.467Z,5.31
2018-01-12T12:09:58.920Z,5.31
2018-01-12T12:12:26.398Z,5.26
2018-01-12T12:14:53.865Z,5.28
2018-01-12T12:17:21.346Z,5.35
2018-01-12T12:19:48.800Z,5.25
2018-01-12T12:22:16.242Z,5.29
2018-01-12T12:24:43.704Z,5.29
2018-01-12T12:27:11.165Z,5.27
2018-01-12T12:29:38.635Z,5.24
2018-01-12T12:32:06.086Z,5.24
2018-01-12T12:34:33.553Z,5.24
2018-01-12T12:37:01.020Z,5.26
2018-01-12T12:39:28.509Z,5.29
2018-01-12T12:41:55.969Z,5.22
2018-01-12T12:44:23.436Z,5.29
2018-01-12T12:46:50.891Z,5.29
2018-01-12T12:49:22.304Z,5.25
2018-01-12T12:51:49.750Z,5.27
2018-01-12T12:54:17.235Z,5.26
2018-01-12T12:56:44.707Z,5.23
2018-01-12T12:59:12.198Z,5.19
2018-01-12T13:01:39.657Z,5.21
2018-01-12T13:04:07.108Z,5.19
2018-01-12T13:06:35.468Z,5.14
2018-01-12T13:09:02.977Z,5.09
2018-01-12T13:11:30.452Z,5.16
2018-01-12T13:13:57.900Z,5.14
2018-01-12T13:16:26.222Z,5.08
2018-01-12T13:18:53.673Z,5.07
2018-01-12T13:21:21.139Z,4.99
2018-01-12T13:23:48.585Z,5.01
2018-01-12T13:26:16.061Z,5.01
2018-01-12T13:28:43.520Z,4.96
2018-01-12T13:31:10.968Z,4.96
2018-01-12T13:33:38.442Z,4.94
2018-01-12T13:36:05.898Z,4.96
2018-01-12T13:38:33.365Z,4.87
2018-01-12T13:41:00.840Z,4.92
2018-01-12T13:43:28.303Z,4.90
2018-01-12T13:45:55.779Z,4.86
2018-01-12T13:48:23.235Z,4.84
2018-01-12T13:50:50.693Z,4.86
2018-01-12T13:53:18.188Z,4.83
2018-01-12T13:55:46.325Z,4.82
2018-01-12T13:58:13.821Z,4.76
2018-01-12T14:00:41.438Z,4.75
2018-01-12T14:03:08.896Z,4.68
2018-01-12T14:05:36.375Z,4.70
2018-01-12T14:08:03.824Z,4.66
2018-01-12T14:10:31.289Z,4.76
2018-01-12T14:12:58.752Z,4.65
2018-01-12T14:15:26.238Z,4.71
2018-01-12T14:17:53.698Z,4.61
2018-01-12T14:20:21.171Z,4.55
2018-01-12T14:22:48.639Z,4.52
2018-01-12T14:25:16.124Z,4.47
2018-01-12T14:27:43.588Z,4.49
2018-01-12T14:30:11.075Z,4.54
2018-01-12T14:32:38.532Z,4.54
2018-01-12T14:35:08.453Z,4.51
2018-01-12T14:37:35.948Z,4.55
2018-01-12T14:40:03.410Z,4.48
2018-01-12T14:42:30.888Z,4.48
2018-01-12T14:44:58.348Z,4.53
2018-01-12T14:47:25.823Z,4.55
2018-01-12T14:49:53.271Z,4.55
2018-01-12T14:52:20.813Z,4.56
2018-01-12T14:54:48.263Z,4.52
2018-01-12T14:57:15.736Z,4.51
2018-01-12T14:59:43.234Z,4.51
2018-01-12T15:02:10.735Z,4.53
2018-01-12T15:04:38.193Z,4.45
2018-01-12T15:07:05.696Z,4.44
2018-01-12T15:09:33.169Z,4.50
2018-01-12T15:12:00.659Z,4.49
2018-01-12T15:14:28.119Z,4.41
2018-01-12T15:16:55.588Z,4.32
2018-01-12T15:19:23.073Z,4.27
2018-01-12T15:21:50.523Z,4.23
2018-01-12T15:24:18.027Z,4.19
2018-01-12T15:26:46.468Z,4.17
2018-01-12T15:29:13.919Z,4.19
2018-01-12T15:31:41.397Z,4.21
2018-01-12T15:34:08.858Z,4.18
2018-01-12T15:36:36.315Z,4.16
2018-01-12T15:39:03.771Z,4.15
2018-01-12T15:41:31.343Z,4.16
2018-01-12T15:43:58.835Z,4.17
2018-01-12T15:46:26.326Z,4.14
2018-01-12T15:48:54.400Z,4.08
2018-01-12T15:51:21.884Z,4.08
2018-01-12T15:53:49.333Z,4.05
2018-01-12T15:56:16.833Z,4.08
2018-01-12T15:58:44.298Z,4.07
2018-01-12T16:01:11.830Z,3.98
2018-01-12T16:03:39.280Z,3.93
2018-01-12T16:06:06.745Z,3.91
2018-01-12T16:08:34.198Z,3.92
2018-01-12T16:11:01.754Z,3.91
2018-01-12T16:13:29.278Z,3.89
2018-01-12T16:15:56.742Z,3.97
2018-01-12T16:18:24.267Z,3.92
2018-01-12T16:20:51.736Z,3.93
2018-01-12T16:23:19.257Z,3.86
2018-01-12T16:25:46.720Z,3.88
2018-01-12T16:28:14.193Z,3.89
2018-01-12T16:30:41.663Z,3.87
2018-01-12T16:33:09.134Z,3.97
2018-01-12T16:35:36.629Z,3.90
2018-01-12T16:38:11.734Z,3.92
2018-01-12T16:40:39.885Z,3.99
2018-01-12T16:43:07.412Z,3.99
2018-01-12T16:45:35.166Z,4.03
2018-01-12T16:48:02.619Z,4.02
2018-01-12T16:50:30.123Z,3.97
2018-01-12T16:52:57.617Z,4.01
2018-01-12T16:55:25.119Z,3.96
2018-01-12T16:57:59.633Z,4.00
2018-01-12T17:00:27.124Z,3.98
2018-01-12T17:02:54.580Z,3.96
2018-01-12T17:05:22.054Z,3.96
2018-01-12T17:07:49.512Z,4.00
2018-01-12T17:10:16.984Z,4.05
2018-01-12T17:12:44.445Z,4.08
2018-01-12T17:15:11.992Z,4.01
2018-01-12T17:17:39.479Z,3.99
2018-01-12T17:20:06.942Z,4.02
2018-01-12T17:22:34.419Z,4.08
2018-01-12T17:25:01.874Z,4.02
2018-01-12T17:27:29.327Z,4.02
2018-01-12T17:29:56.793Z,4.02
2018-01-12T17:32:24.263Z,3.99
2018-01-12T17:34:51.739Z,3.91
2018-01-12T17:37:19.237Z,3.97
2018-01-12T17:39:46.702Z,3.99
2018-01-12T17:42:14.165Z,3.97
2018-01-12T17:44:41.630Z,3.97
2018-01-12T17:47:09.082Z,3.96
2018-01-12T17:49:36.556Z,3.97
2018-01-12T17:52:04.008Z,3.97
2018-01-12T17:54:31.476Z,3.97
2018-01-12T17:56:58.927Z,3.95
2018-01-12T17:59:30.434Z,3.90
2018-01-12T18:01:57.902Z,3.78
2018-01-12T18:04:25.367Z,3.81
2018-01-12T18:06:52.836Z,3.76
2018-01-12T18:09:20.301Z,3.75
2018-01-12T18:11:47.776Z,3.77
2018-01-12T18:14:15.236Z,3.78
2018-01-12T18:16:42.747Z,3.84
2018-01-12T18:19:10.282Z,3.81
2018-01-12T18:21:37.774Z,3.83
2018-01-12T18:24:05.238Z,3.79
2018-01-12T18:26:32.836Z,3.77
2018-01-12T18:29:00.303Z,3.73
2018-01-12T18:31:27.790Z,3.71
2018-01-12T18:33:55.297Z,3.78
2018-01-12T18:36:22.799Z,3.71
2018-01-12T18:38:50.265Z,3.70
2018-01-12T18:41:17.738Z,3.68
2018-01-12T18:43:45.214Z,3.68
2018-01-12T18:46:12.680Z,3.66
2018-01-12T18:48:40.174Z,3.70
2018-01-12T18:51:07.631Z,3.70
2018-01-12T18:53:35.112Z,3.69
2018-01-12T18:56:02.656Z,3.63
2018-01-12T18:58:30.146Z,3.62
2018-01-12T19:00:57.734Z,3.62
2018-01-12T19:03:25.185Z,3.67
2018-01-12T19:05:52.671Z,3.58
2018-01-12T19:08:20.153Z,3.59
2018-01-12T19:10:47.753Z,3.56
2018-01-12T19:13:15.229Z,3.56
2018-01-12T19:15:42.744Z,3.56
2018-01-12T19:18:10.209Z,3.49
2018-01-12T19:20:37.683Z,3.56
2018-01-12T19:23:05.141Z,3.56
2018-01-12T19:25:32.637Z,3.53
2018-01-12T19:28:00.152Z,3.61
2018-01-12T19:30:27.676Z,3.65
2018-01-12T19:32:55.183Z,3.54
2018-01-12T19:35:22.744Z,3.59
2018-01-12T19:37:50.240Z,3.83
2018-01-12T19:40:17.780Z,3.85
2018-01-12T19:42:45.331Z,3.81
2018-01-12T19:45:12.822Z,3.95
2018-01-12T19:47:40.300Z,4.09
2018-01-12T19:50:07.763Z,4.34
2018-01-12T19:52:35.395Z,4.11
2018-01-12T19:55:03.147Z,3.97
2018-01-12T19:57:30.723Z,3.84
2018-01-12T19:59:58.236Z,3.73
2018-01-12T20:02:25.780Z,3.67
2018-01-12T20:04:53.299Z,3.67
2018-01-12T20:07:20.793Z,3.66
2018-01-12T20:09:48.266Z,3.65
2018-01-12T20:12:15.741Z,3.68
2018-01-12T20:14:43.460Z,3.63
2018-01-12T20:17:10.959Z,3.63
2018-01-12T20:19:38.512Z,3.68
2018-01-12T20:22:06.139Z,3.70
2018-01-12T20:24:33.710Z,3.75
2018-01-12T20:27:01.218Z,3.76
2018-01-12T20:29:28.679Z,3.83
2018-01-12T20:31:56.246Z,3.86
2018-01-12T20:34:23.749Z,3.81
2018-01-12T20:36:51.251Z,3.87
2018-01-12T20:39:18.739Z,3.85
2018-01-12T20:41:46.280Z,3.76
2018-01-12T20:44:13.805Z,3.75
2018-01-12T20:46:41.331Z,3.76
2018-01-12T20:49:09.116Z,3.73
2018-01-12T20:51:36.656Z,3.77
2018-01-12T20:54:04.304Z,3.77
2018-01-12T20:56:31.875Z,3.77
2018-01-12T20:58:59.616Z,3.74
2018-01-12T21:01:27.099Z,3.80
2018-01-12T21:03:54.654Z,3.80
2018-01-12T21:06:22.338Z,3.83
2018-01-12T21:08:49.875Z,3.77
2018-01-12T21:11:17.392Z,3.72
2018-01-12T21:13:44.931Z,3.70
2018-01-12T21:16:12.464Z,3.68
2018-01-12T21:21:32.572Z,3.69
2018-01-12T21:24:00.135Z,3.61
2018-01-12T21:26:28.051Z,3.57
2018-01-12T21:28:55.670Z,3.57
2018-01-12T21:31:23.134Z,3.62
2018-01-12T21:33:50.606Z,3.63
2018-01-12T21:36:18.185Z,3.59
2018-01-12T21:38:45.715Z,3.57
2018-01-12T21:41:13.272Z,3.54
2018-01-12T21:43:40.793Z,3.53
2018-01-12T21:46:08.315Z,3.56
2018-01-12T21:48:35.812Z,3.49
2018-01-12T21:51:03.321Z,3.48
2018-01-12T21:53:30.863Z,3.45
2018-01-12T21:55:58.324Z,3.44
2018-01-12T21:58:25.846Z,3.39
2018-01-12T22:00:53.354Z,3.30
2018-01-12T22:03:20.977Z,3.34
2018-01-12T22:05:48.508Z,3.23
2018-01-12T22:08:16.040Z,3.24
2018-01-12T22:10:43.512Z,3.25
2018-01-12T22:13:10.981Z,3.22
2018-01-12T22:15:38.514Z,3.24
2018-01-12T22:18:05.999Z,3.31
2018-01-12T22:20:33.455Z,3.25
2018-01-12T22:23:00.918Z,3.26
2018-01-12T22:25:28.389Z,3.24
2018-01-12T22:27:55.875Z,3.25
2018-01-12T22:30:23.427Z,3.24
2018-01-12T22:32:50.904Z,3.26
2018-01-12T22:35:18.367Z,3.28
2018-01-12T22:37:45.905Z,3.32
2018-01-12T22:40:13.369Z,3.37
2018-01-12T22:42:40.845Z,3.41
2018-01-12T22:45:08.342Z,3.43
2018-01-12T22:47:35.844Z,3.48
2018-01-12T22:50:03.308Z,3.54
2018-01-12T22:52:30.767Z,3.54
2018-01-12T22:54:58.257Z,3.47
2018-01-12T22:57:25.821Z,3.45
2018-01-12T22:59:53.292Z,3.48
2018-01-12T23:02:20.845Z,3.45
2018-01-12T23:04:48.360Z,3.54
2018-01-12T23:07:15.820Z,3.49
2018-01-12T23:09:43.349Z,3.51
2018-01-12T23:12:10.809Z,3.53
2018-01-12T23:14:38.280Z,3.49
2018-01-12T23:17:05.751Z,3.54
2018-01-12T23:19:33.221Z,3.50
2018-01-12T23:22:00.687Z,3.52
2018-01-12T23:24:28.141Z,3.49
2018-01-12T23:26:55.635Z,3.55
2018-01-12T23:29:23.090Z,3.52
2018-01-12T23:31:50.597Z,3.52
2018-01-12T23:34:18.060Z,3.56
2018-01-12T23:36:45.900Z,3.54
2018-01-12T23:39:13.872Z,3.55
2018-01-12T23:41:42.963Z,3.59
2018-01-12T23:44:10.447Z,3.55
2018-01-12T23:46:37.910Z,3.52
2018-01-12T23:49:05.390Z,3.56
2018-01-12T23:51:32.855Z,3.60
2018-01-12T23:54:00.372Z,3.59
2018-01-12T23:56:27.842Z,3.54
2018-01-12T23:58:55.609Z,3.59
